Time;durP1;ratioP1;P1;durP2;ratioP2;P2;SDS_P1;SDS_P2;PMS_P1;PMS_P2;Temp;Humidity;BMP_temperature;BMP_pressure;BME280_temperature;BME280_humidity;BME280_pressure;Samples;Min_cycle;Max_cycle;Signal;HPM_P1;HPM_P2
2021/01/11 00:01:40;;;;;;;52.92;25.70;;;0.70;99.80;;;;;;5012780;28;20101;-79
2021/01/11 00:04:06;;;;;;;55.13;25.73;;;0.60;99.80;;;;;;5012619;28;20429;-78
2021/01/11 00:06:37;;;;;;;54.03;25.15;;;0.60;99.80;;;;;;5013364;28;20061;-77
2021/01/11 00:09:03;;;;;;;53.78;25.58;;;0.60;99.80;;;;;;4995507;28;20414;-77
2021/01/11 00:11:29;;;;;;;54.65;25.98;;;0.60;99.80;;;;;;4995603;28;20025;-78
2021/01/11 00:13:54;;;;;;;54.92;25.77;;;0.60;99.80;;;;;;5013212;28;20018;-78
2021/01/11 00:16:20;;;;;;;62.30;26.90;;;0.60;99.80;;;;;;5013153;28;20069;-78
2021/01/11 00:18:46;;;;;;;58.00;26.52;;;0.50;99.70;;;;;;5013498;28;20022;-79
2021/01/11 00:21:15;;;;;;;59.47;26.65;;;0.50;99.70;;;;;;5013632;28;20105;-78
2021/01/11 00:23:41;;;;;;;55.88;25.88;;;0.40;99.70;;;;;;5013503;28;20022;-79
2021/01/11 00:26:09;;;;;;;56.50;25.92;;;0.40;99.70;;;;;;5013207;28;20034;-78
2021/01/11 00:28:35;;;;;;;60.28;27.98;;;0.40;99.70;;;;;;4995979;28;20105;-78
2021/01/11 00:31:01;;;;;;;60.42;26.70;;;0.30;99.70;;;;;;5013627;28;20029;-78
2021/01/11 00:33:27;;;;;;;60.28;28.50;;;0.30;99.70;;;;;;5016121;28;20026;-78
2021/01/11 00:35:52;;;;;;;61.60;27.45;;;0.30;99.70;;;;;;5017721;28;20105;-78
2021/01/11 00:38:18;;;;;;;72.72;29.83;;;0.20;99.60;;;;;;5017685;28;20026;-79
2021/01/11 00:40:44;;;;;;;61.05;26.92;;;0.20;99.60;;;;;;5017668;28;20022;-78
2021/01/11 00:43:10;;;;;;;58.70;27.50;;;0.20;99.60;;;;;;5017623;28;20105;-78
2021/01/11 00:45:36;;;;;;;64.50;27.63;;;0.10;99.70;;;;;;5018254;28;20053;-80
2021/01/11 00:48:02;;;;;;;65.15;27.20;;;0.10;99.70;;;;;;5018670;28;20164;-80
2021/01/11 00:50:27;;;;;;;60.40;28.20;;;0.10;99.70;;;;;;5016701;28;20109;-79
2021/01/11 00:52:53;;;;;;;56.42;26.48;;;0.00;99.70;;;;;;5017641;28;20038;-78
2021/01/11 00:55:19;;;;;;;62.88;26.70;;;0.00;99.80;;;;;;4999670;28;20094;-79
2021/01/11 00:57:44;;;;;;;59.17;26.02;;;0.10;99.90;;;;;;4999851;28;20041;-79
2021/01/11 01:00:12;;;;;;;62.90;25.63;;;0.10;99.90;;;;;;5017287;28;20415;-79
2021/01/11 01:02:38;;;;;;;52.55;24.83;;;0.10;99.90;;;;;;5016861;28;20068;-80
2021/01/11 01:05:07;;;;;;;55.28;24.38;;;0.10;99.90;;;;;;5016449;28;20021;-80
2021/01/11 01:07:32;;;;;;;47.42;22.33;;;0.10;99.90;;;;;;5015906;28;20030;-80
2021/01/11 01:09:58;;;;;;;53.53;23.95;;;0.20;99.90;;;;;;5015984;28;20026;-79
2021/01/11 01:12:25;;;;;;;49.78;23.08;;;0.30;99.90;;;;;;5016618;28;20129;-79
2021/01/11 01:14:51;;;;;;;49.33;23.27;;;0.40;99.90;;;;;;5016465;28;20369;-80
2021/01/11 01:17:17;;;;;;;49.85;23.65;;;0.40;99.90;;;;;;5016734;28;20028;-80
2021/01/11 01:19:42;;;;;;;49.15;23.48;;;0.50;99.90;;;;;;5016649;28;20022;-79
2021/01/11 01:22:08;;;;;;;52.72;24.92;;;0.50;99.90;;;;;;4999340;28;20022;-79
2021/01/11 01:24:34;;;;;;;55.88;26.63;;;0.60;99.90;;;;;;4999481;28;20052;-79
2021/01/11 01:26:59;;;;;;;54.55;26.25;;;0.60;99.90;;;;;;4999161;28;20563;-79
2021/01/11 01:29:25;;;;;;;45.38;22.92;;;0.60;99.90;;;;;;4998874;28;20026;-78
2021/01/11 01:31:51;;;;;;;46.40;22.30;;;0.50;99.90;;;;;;5016673;28;20097;-79
2021/01/11 01:34:16;;;;;;;43.63;22.40;;;0.50;99.90;;;;;;5016603;28;20029;-80
2021/01/11 01:36:42;;;;;;;46.50;22.55;;;0.50;99.90;;;;;;5016717;28;20048;-79
2021/01/11 01:39:08;;;;;;;49.50;22.20;;;0.50;99.90;;;;;;5016978;28;20073;-80
2021/01/11 01:41:33;;;;;;;50.10;23.65;;;0.50;99.90;;;;;;5016711;28;20491;-79
2021/01/11 01:43:59;;;;;;;49.78;22.90;;;0.50;99.90;;;;;;4997887;28;20017;-79
2021/01/11 01:46:30;;;;;;;47.47;24.45;;;0.40;99.90;;;;;;4998875;28;20058;-78
2021/01/11 01:48:56;;;;;;;53.13;26.05;;;0.40;99.90;;;;;;5016217;28;20022;-80
2021/01/11 01:51:22;;;;;;;49.85;24.65;;;0.40;99.90;;;;;;5016434;28;20054;-79
2021/01/11 01:53:48;;;;;;;56.55;29.00;;;0.30;99.90;;;;;;5016683;28;20099;-80
2021/01/11 01:56:16;;;;;;;49.30;24.55;;;0.30;99.90;;;;;;4998855;28;20696;-79
2021/01/11 01:58:43;;;;;;;53.78;24.63;;;0.40;99.90;;;;;;5016102;28;20726;-79
2021/01/11 02:01:09;;;;;;;44.53;21.73;;;0.40;99.90;;;;;;4998488;28;20029;-79
2021/01/11 02:03:35;;;;;;;36.80;19.08;;;0.50;99.90;;;;;;5015512;28;20034;-79
2021/01/11 02:06:04;;;;;;;43.63;20.15;;;0.50;99.90;;;;;;5015060;28;20026;-79
2021/01/11 02:08:38;;;;;;;41.17;19.92;;;0.60;99.90;;;;;;5015756;28;20026;-79
2021/01/11 02:11:23;;;;;;;38.25;18.40;;;0.70;99.90;;;;;;5015795;28;20100;-79
2021/01/11 02:13:56;;;;;;;47.75;23.00;;;0.70;99.90;;;;;;5015721;28;20053;-80
2021/01/11 02:16:52;;;;;;;36.08;18.02;;;0.80;99.90;;;;;;4997981;28;20049;-78
2021/01/11 02:19:17;;;;;;;33.30;15.45;;;0.90;99.90;;;;;;4998205;28;20543;-80
2021/01/11 02:22:28;;;;;;;33.13;16.50;;;1.00;99.90;;;;;;5015957;28;20022;-78
2021/01/11 02:25:12;;;;;;;36.78;18.95;;;1.10;99.90;;;;;;5012743;28;20030;-79
2021/01/11 02:27:41;;;;;;;36.35;17.83;;;1.10;99.90;;;;;;4998142;28;20022;-78
2021/01/11 02:30:13;;;;;;;37.38;18.77;;;1.10;99.90;;;;;;5015611;28;20050;-79
2021/01/11 02:32:47;;;;;;;38.22;18.13;;;1.20;99.90;;;;;;4997766;28;20463;-80
2021/01/11 02:35:14;;;;;;;35.97;17.92;;;1.20;99.90;;;;;;5015371;28;20022;-79
2021/01/11 02:37:41;;;;;;;29.80;15.55;;;1.20;99.90;;;;;;5015496;28;20101;-79
2021/01/11 02:40:09;;;;;;;28.77;15.50;;;1.20;99.90;;;;;;4997848;28;20022;-78
2021/01/11 02:42:35;;;;;;;32.50;16.60;;;1.20;99.90;;;;;;4997745;28;20120;-80
2021/01/11 02:45:01;;;;;;;28.60;15.63;;;1.20;99.90;;;;;;5015331;28;20425;-79
2021/01/11 02:47:41;;;;;;;28.17;15.13;;;1.30;99.90;;;;;;4997797;28;20117;-79
2021/01/11 02:50:09;;;;;;;33.88;16.65;;;1.30;99.90;;;;;;5015218;28;20026;-79
2021/01/11 02:53:01;;;;;;;26.23;13.77;;;1.30;99.90;;;;;;5015573;28;20376;-80
2021/01/11 02:55:44;;;;;;;26.10;13.82;;;1.30;99.90;;;;;;4997209;28;20026;-79
2021/01/11 02:58:12;;;;;;;;;;;1.30;99.90;;;;;;5015592;28;20025;-80
2021/01/11 03:00:40;;;;;;;21.73;12.63;;;1.40;99.90;;;;;;5015284;28;19902;-80
2021/01/11 03:03:07;;;;;;;20.23;11.02;;;1.30;99.90;;;;;;5015274;28;20321;-80
2021/01/11 03:05:35;;;;;;;19.38;11.73;;;1.40;99.90;;;;;;5015380;28;20033;-80
2021/01/11 03:08:01;;;;;;;21.08;11.73;;;1.40;99.90;;;;;;5015199;28;20030;-80
2021/01/11 03:10:30;;;;;;;18.58;10.73;;;1.40;99.90;;;;;;5015175;28;20033;-80
2021/01/11 03:12:56;;;;;;;19.38;10.95;;;1.40;99.90;;;;;;5014989;28;20036;-79
2021/01/11 03:15:22;;;;;;;17.08;10.35;;;1.40;99.90;;;;;;5014685;28;20124;-80
2021/01/11 03:17:47;;;;;;;19.75;11.63;;;1.40;99.90;;;;;;4997513;28;20022;-79
2021/01/11 03:20:14;;;;;;;19.10;10.90;;;1.40;99.90;;;;;;5016379;28;20026;-80
2021/01/11 03:22:40;;;;;;;20.15;11.27;;;1.40;99.90;;;;;;5014652;28;20060;-79
2021/01/11 03:25:07;;;;;;;18.95;10.88;;;1.40;99.90;;;;;;5014613;28;20057;-80
2021/01/11 03:27:33;;;;;;;21.70;12.00;;;1.50;99.90;;;;;;4996879;28;20053;-80
2021/01/11 03:29:59;;;;;;;17.45;10.10;;;1.50;99.90;;;;;;5014888;28;20550;-80
2021/01/11 03:32:24;;;;;;;20.55;11.95;;;1.50;99.90;;;;;;4996742;28;20057;-80
2021/01/11 03:34:50;;;;;;;20.60;11.75;;;1.50;99.90;;;;;;5014566;28;20030;-79
2021/01/11 03:37:16;;;;;;;16.35;9.68;;;1.50;99.90;;;;;;5014349;28;20464;-79
2021/01/11 03:39:42;;;;;;;15.68;9.55;;;1.50;99.90;;;;;;5014396;28;20488;-80
2021/01/11 03:42:08;;;;;;;17.05;9.98;;;1.50;99.90;;;;;;5014505;28;20034;-79
2021/01/11 03:44:34;;;;;;;17.02;10.20;;;1.50;99.90;;;;;;5014441;28;20030;-80
2021/01/11 03:47:00;;;;;;;17.35;10.18;;;1.60;99.90;;;;;;5014179;28;20033;-79
2021/01/11 03:49:25;;;;;;;16.05;10.32;;;1.60;99.90;;;;;;4996596;28;20077;-79
2021/01/11 03:51:51;;;;;;;17.50;10.45;;;1.60;99.90;;;;;;5014058;28;20036;-78
2021/01/11 03:54:17;;;;;;;17.48;10.25;;;1.60;99.90;;;;;;5014144;28;20135;-78
2021/01/11 03:56:43;;;;;;;16.52;9.80;;;1.60;99.90;;;;;;5014073;28;20049;-80
2021/01/11 03:59:08;;;;;;;18.52;10.20;;;1.60;99.90;;;;;;4996413;28;20021;-80
2021/01/11 04:01:36;;;;;;;15.57;9.48;;;1.70;99.90;;;;;;5013937;28;20065;-80
2021/01/11 04:04:01;;;;;;;16.00;9.52;;;1.70;99.90;;;;;;4996624;28;20057;-80
2021/01/11 04:06:27;;;;;;;19.00;10.68;;;1.70;99.90;;;;;;5014069;28;20026;-80
2021/01/11 04:08:53;;;;;;;15.70;10.07;;;1.70;99.90;;;;;;5014020;28;20024;-81
2021/01/11 04:11:20;;;;;;;17.33;9.45;;;1.70;99.90;;;;;;5014289;28;20432;-80
2021/01/11 04:13:47;;;;;;;15.73;9.52;;;1.70;99.90;;;;;;5014143;28;20029;-80
2021/01/11 04:16:12;;;;;;;18.08;10.57;;;1.70;99.90;;;;;;5013928;28;20046;-80
2021/01/11 04:18:38;;;;;;;16.80;9.60;;;1.70;99.90;;;;;;5014231;28;20117;-80
2021/01/11 04:21:04;;;;;;;17.83;11.05;;;1.70;99.90;;;;;;4996473;28;20030;-79
2021/01/11 04:23:30;;;;;;;18.45;10.48;;;1.70;99.90;;;;;;5014058;28;20033;-80
2021/01/11 04:25:55;;;;;;;18.60;10.18;;;1.70;99.90;;;;;;5013961;28;20108;-79
2021/01/11 04:28:21;;;;;;;17.80;10.18;;;1.70;99.90;;;;;;5013845;28;20030;-80
2021/01/11 04:30:46;;;;;;;16.13;9.75;;;1.70;99.90;;;;;;5013725;28;20483;-80
2021/01/11 04:33:12;;;;;;;16.35;9.82;;;1.70;99.90;;;;;;5013498;28;20052;-81
2021/01/11 04:35:38;;;;;;;23.05;10.32;;;1.70;99.90;;;;;;5013636;28;20061;-79
2021/01/11 04:38:04;;;;;;;20.40;10.80;;;1.70;99.90;;;;;;5012821;28;20030;-80
2021/01/11 04:40:29;;;;;;;16.90;10.50;;;1.70;99.90;;;;;;5013828;28;20108;-80
2021/01/11 04:43:02;;;;;;;19.80;11.50;;;1.70;99.90;;;;;;5013913;28;20034;-80
2021/01/11 04:45:28;;;;;;;19.15;10.43;;;1.70;99.90;;;;;;5013699;28;20030;-80
2021/01/11 04:47:55;;;;;;;23.85;12.32;;;1.70;99.90;;;;;;5013675;28;20136;-80
2021/01/11 04:50:22;;;;;;;25.35;13.55;;;1.70;99.90;;;;;;4995859;28;20053;-80
2021/01/11 04:52:48;;;;;;;26.30;14.23;;;1.70;99.90;;;;;;5013404;28;20072;-80
2021/01/11 04:55:15;;;;;;;36.67;15.48;;;1.70;99.90;;;;;;4995709;28;20124;-81
2021/01/11 04:57:55;;;;;;;43.33;16.25;;;1.60;99.90;;;;;;5013873;28;20029;-80
2021/01/11 05:00:29;;;;;;;32.30;16.75;;;1.60;99.90;;;;;;5013250;28;20150;-80
2021/01/11 05:03:09;;;;;;;34.25;18.65;;;1.60;99.90;;;;;;5013400;28;20088;-80
2021/01/11 05:05:45;;;;;;;27.95;16.08;;;1.60;99.90;;;;;;5013518;28;20700;-79
2021/01/11 05:08:11;;;;;;;37.47;19.42;;;1.60;99.90;;;;;;5013244;28;20029;-80
2021/01/11 05:10:39;;;;;;;64.28;27.42;;;1.60;99.90;;;;;;5013105;28;20506;-79
2021/01/11 05:13:10;;;;;;;44.40;20.40;;;1.50;99.90;;;;;;5012929;28;20063;-80
2021/01/11 05:15:40;;;;;;;60.85;25.80;;;1.50;99.80;;;;;;5012380;28;20137;-80
2021/01/11 05:18:16;;;;;;;65.72;26.92;;;1.40;99.60;;;;;;5012678;28;20025;-80
2021/01/11 05:20:42;;;;;;;62.00;27.40;;;1.40;99.40;;;;;;5016546;28;20026;-79
2021/01/11 05:23:10;;;;;;;47.55;23.80;;;1.30;99.20;;;;;;5016868;28;20033;-80
2021/01/11 05:25:37;;;;;;;42.55;21.02;;;1.20;99.10;;;;;;4998542;28;20026;-80
2021/01/11 05:28:14;;;;;;;42.17;19.40;;;1.10;99.00;;;;;;5016686;28;20030;-80
2021/01/11 05:30:42;;;;;;;45.80;19.58;;;1.00;98.90;;;;;;5016477;28;20033;-80
2021/01/11 05:33:16;;;;;;;39.40;17.33;;;0.90;98.90;;;;;;4998739;28;20538;-80
2021/01/11 05:35:41;;;;;;;29.83;15.02;;;0.80;99.00;;;;;;5017076;28;20448;-80
2021/01/11 05:38:15;;;;;;;32.80;15.85;;;0.80;99.00;;;;;;5017378;28;20105;-81
2021/01/11 05:40:42;;;;;;;35.58;18.77;;;0.70;99.00;;;;;;5016426;28;20018;-81
2021/01/11 05:43:08;;;;;;;55.05;25.98;;;0.70;99.00;;;;;;5016169;28;20108;-80
2021/01/11 05:45:34;;;;;;;63.72;29.42;;;0.60;99.00;;;;;;4999003;28;20029;-80
2021/01/11 05:48:08;;;;;;;56.95;28.67;;;0.60;99.10;;;;;;5016538;28;20032;-79
2021/01/11 05:50:42;;;;;;;58.08;29.48;;;0.60;99.20;;;;;;5016497;28;20057;-80
2021/01/11 05:53:21;;;;;;;52.53;28.90;;;0.60;99.40;;;;;;5016290;28;20037;-80
2021/01/11 05:55:48;;;;;;;46.50;24.05;;;0.60;99.60;;;;;;5016807;28;20050;-80
2021/01/11 05:58:15;;;;;;;37.45;18.80;;;0.70;99.80;;;;;;5016810;28;20113;-81
2021/01/11 06:00:42;;;;;;;40.10;18.60;;;0.70;99.90;;;;;;5016447;28;20064;-80
2021/01/11 06:03:09;;;;;;;38.47;18.85;;;0.80;99.90;;;;;;5016173;28;20033;-80
2021/01/11 06:05:36;;;;;;;69.75;33.42;;;0.80;99.90;;;;;;5015943;28;20410;-80
2021/01/11 06:08:04;;;;;;;58.95;30.60;;;0.80;99.90;;;;;;5020546;28;20026;-79
2021/01/11 06:10:30;;;;;;;42.20;21.17;;;0.90;99.90;;;;;;5025279;28;20085;-81
2021/01/11 06:12:56;;;;;;;36.55;19.70;;;0.90;99.90;;;;;;5007734;28;20029;-80
2021/01/11 06:15:24;;;;;;;37.83;20.83;;;0.90;99.90;;;;;;5027152;28;20052;-78
2021/01/11 06:17:57;;;;;;;40.88;22.67;;;1.00;99.90;;;;;;5010913;28;20026;-79
2021/01/11 06:20:28;;;;;;;47.88;23.80;;;1.00;99.90;;;;;;5029893;28;20081;-80
2021/01/11 06:22:54;;;;;;;64.43;30.27;;;1.00;99.90;;;;;;5028457;28;20026;-80
2021/01/11 06:25:22;;;;;;;55.35;28.55;;;1.10;99.90;;;;;;5028432;28;20531;-81
2021/01/11 06:27:58;;;;;;;69.97;33.58;;;1.00;99.80;;;;;;5005854;28;20033;-81
2021/01/11 06:30:44;;;;;;;61.90;31.73;;;1.00;99.80;;;;;;5016338;28;20030;-80
2021/01/11 06:33:24;;;;;;;47.72;24.55;;;1.00;99.80;;;;;;5016054;28;20033;-81
2021/01/11 06:35:52;;;;;;;37.05;21.42;;;1.10;99.80;;;;;;5017552;28;20030;-81
2021/01/11 06:38:28;;;;;;;41.25;22.20;;;1.10;99.80;;;;;;5015993;28;20037;-80
2021/01/11 06:41:03;;;;;;;46.88;27.13;;;1.10;99.80;;;;;;5017463;28;20025;-81
2021/01/11 06:43:49;;;;;;;70.38;37.38;;;1.10;99.90;;;;;;5016955;28;20112;-80
2021/01/11 06:46:28;;;;;;;98.13;45.78;;;1.10;99.90;;;;;;5019083;28;20468;-81
2021/01/11 06:49:01;;;;;;;97.82;46.63;;;1.20;99.90;;;;;;5015794;28;20030;-78
2021/01/11 06:51:42;;;;;;;76.22;35.65;;;1.30;99.90;;;;;;4997765;28;20462;-80
2021/01/11 06:54:15;;;;;;;83.70;36.17;;;1.40;99.90;;;;;;5015322;28;20118;-81
2021/01/11 06:56:42;;;;;;;59.70;27.73;;;1.60;99.90;;;;;;5014899;28;20022;-82
2021/01/11 06:59:13;;;;;;;38.35;20.58;;;1.80;99.90;;;;;;4997456;28;20077;-81
2021/01/11 07:01:42;;;;;;;36.95;19.15;;;2.00;99.90;;;;;;5015221;28;20030;-81
2021/01/11 07:04:09;;;;;;;30.00;16.13;;;2.30;99.90;;;;;;5015765;28;20022;-82
2021/01/11 07:06:39;;;;;;;30.95;17.83;;;2.70;99.90;;;;;;5015370;28;20030;-82
2021/01/11 07:09:06;;;;;;;28.95;16.17;;;3.00;99.90;;;;;;5015915;28;20026;-81
2021/01/11 07:11:34;;;;;;;23.15;13.65;;;3.20;99.90;;;;;;4997354;28;20041;-82
2021/01/11 07:14:00;;;;;;;26.35;15.18;;;3.40;99.90;;;;;;4998072;28;20122;-81
2021/01/11 07:16:52;;;;;;;32.38;18.77;;;3.50;99.90;;;;;;5016337;28;20061;-82
2021/01/11 07:19:42;;;;;;;30.23;17.37;;;3.60;99.90;;;;;;5017632;28;20104;-81
2021/01/11 07:22:10;;;;;;;35.92;20.23;;;3.60;99.90;;;;;;5016053;28;20261;-82
2021/01/11 07:24:40;;;;;;;36.45;20.15;;;3.70;99.90;;;;;;4998722;28;20428;-81
2021/01/11 07:27:07;;;;;;;36.85;21.42;;;3.90;99.90;;;;;;5017509;28;20030;-83
2021/01/11 07:29:33;;;;;;;42.03;24.65;;;3.90;99.90;;;;;;4998986;28;20026;-82
2021/01/11 07:31:59;;;;;;;49.03;27.58;;;3.90;99.80;;;;;;5018060;28;20030;-83
2021/01/11 07:34:24;;;;;;;43.42;24.30;;;3.90;99.70;;;;;;4998601;28;20468;-82
2021/01/11 07:36:52;;;;;;;43.35;25.17;;;4.00;99.70;;;;;;5015355;28;20026;-81
2021/01/11 07:39:25;;;;;;;38.05;20.85;;;4.00;99.70;;;;;;5015649;28;20041;-81
2021/01/11 07:41:53;;;;;;;34.33;20.23;;;4.20;99.90;;;;;;4996038;28;20108;-80
2021/01/11 07:44:27;;;;;;;31.42;19.25;;;4.50;99.90;;;;;;5014481;28;20057;-79
2021/01/11 07:47:00;;;;;;;41.03;21.98;;;4.80;99.90;;;;;;5014724;28;20026;-82
2021/01/11 07:49:33;;;;;;;40.97;23.50;;;5.20;99.90;;;;;;4996423;28;20457;-77
2021/01/11 07:52:04;;;;;;;50.80;28.23;;;5.40;99.90;;;;;;5012346;28;20029;-76
2021/01/11 07:54:30;;;;;;;61.42;34.50;;;5.60;99.90;;;;;;5012214;28;20443;-76
2021/01/11 07:56:56;;;;;;;29.75;16.27;;;5.90;99.90;;;;;;4994633;28;20022;-76
2021/01/11 07:59:22;;;;;;;25.30;15.43;;;6.10;99.70;;;;;;4994157;28;20428;-77
2021/01/11 08:01:48;;;;;;;18.50;11.02;;;6.30;99.40;;;;;;5012103;28;20100;-77
2021/01/11 08:04:15;;;;;;;20.95;13.02;;;6.60;99.60;;;;;;5012199;28;20034;-76
2021/01/11 08:06:55;;;;;;;27.75;16.85;;;6.90;99.70;;;;;;4994090;28;20555;-76
2021/01/11 08:09:29;;;;;;;35.35;19.08;;;7.30;99.30;;;;;;5012051;28;20052;-76
2021/01/11 08:12:16;;;;;;;25.35;15.25;;;7.80;99.40;;;;;;4994517;28;20076;-76
2021/01/11 08:14:45;;;;;;;24.70;14.35;;;8.30;99.10;;;;;;5011919;28;20038;-76
2021/01/11 08:17:16;;;;;;;23.48;15.35;;;8.70;99.10;;;;;;5011981;28;20112;-76
2021/01/11 08:19:42;;;;;;;19.23;11.75;;;9.10;98.30;;;;;;5012291;28;20479;-77
2021/01/11 08:22:10;;;;;;;18.75;12.60;;;9.30;96.50;;;;;;5011737;28;20064;-76
2021/01/11 08:24:36;;;;;;;17.58;11.18;;;9.30;95.20;;;;;;4994111;28;20104;-76
2021/01/11 08:27:05;;;;;;;16.50;10.85;;;9.30;94.70;;;;;;5011551;28;20381;-76
2021/01/11 08:29:35;;;;;;;21.63;14.02;;;9.30;94.40;;;;;;5011604;28;20480;-76
2021/01/11 08:32:04;;;;;;;10.73;7.78;;;9.20;93.40;;;;;;4993695;28;20068;-76
2021/01/11 08:34:30;;;;;;;13.73;9.02;;;9.20;93.40;;;;;;5011502;28;20026;-76
2021/01/11 08:36:56;;;;;;;12.48;8.55;;;9.40;93.90;;;;;;5011773;28;20105;-78
2021/01/11 08:39:24;;;;;;;9.90;7.00;;;9.60;94.10;;;;;;5011746;28;20033;-76
2021/01/11 08:41:53;;;;;;;12.55;7.90;;;9.70;93.40;;;;;;5011575;28;20040;-77
2021/01/11 08:44:29;;;;;;;13.38;8.73;;;9.90;92.80;;;;;;5011435;28;20476;-76
2021/01/11 08:46:59;;;;;;;15.63;8.85;;;10.00;92.00;;;;;;5011599;28;20436;-76
2021/01/11 08:49:26;;;;;;;11.25;8.50;;;10.00;91.70;;;;;;5011448;28;20025;-76
2021/01/11 08:51:52;;;;;;;12.77;9.98;;;10.10;91.70;;;;;;5011629;28;20108;-76
2021/01/11 08:54:28;;;;;;;12.23;8.57;;;10.10;90.90;;;;;;5014459;28;20026;-77
2021/01/11 08:57:07;;;;;;;12.02;8.32;;;9.80;90.00;;;;;;4998261;28;20472;-76
2021/01/11 08:59:33;;;;;;;12.70;8.80;;;9.60;89.60;;;;;;5025190;28;20029;-79
2021/01/11 09:01:59;;;;;;;17.65;11.98;;;9.20;89.10;;;;;;5034294;28;20471;-76
2021/01/11 09:04:35;;;;;;;15.73;11.10;;;8.90;89.30;;;;;;5035160;28;20044;-76
2021/01/11 09:07:05;;;;;;;20.00;12.07;;;8.60;88.50;;;;;;5017593;28;20034;-76
2021/01/11 09:09:33;;;;;;;26.15;16.25;;;8.40;88.90;;;;;;5035024;28;20030;-78
2021/01/11 09:12:03;;;;;;;28.38;17.33;;;8.10;89.10;;;;;;5034928;28;20021;-78
2021/01/11 09:14:31;;;;;;;21.95;12.73;;;7.90;89.30;;;;;;5015959;28;20049;-78
2021/01/11 09:17:04;;;;;;;20.08;12.80;;;7.90;90.40;;;;;;5033421;28;20045;-76
2021/01/11 09:19:32;;;;;;;17.30;11.18;;;8.10;90.70;;;;;;5016870;28;20056;-77
2021/01/11 09:22:15;;;;;;;16.92;11.52;;;8.40;91.20;;;;;;5015172;28;20057;-77
2021/01/11 09:25:05;;;;;;;15.23;11.27;;;8.80;91.10;;;;;;4995581;28;20026;-76
2021/01/11 09:27:30;;;;;;;18.55;12.38;;;9.10;91.10;;;;;;5004716;28;20038;-76
2021/01/11 09:29:55;;;;;;;34.42;21.00;;;9.60;91.30;;;;;;5016733;28;20033;-80
2021/01/11 09:32:21;;;;;;;20.08;13.55;;;10.00;91.30;;;;;;5017459;28;20811;-79
2021/01/11 09:34:48;;;;;;;17.70;12.85;;;10.40;90.50;;;;;;5035101;28;20067;-79
2021/01/11 09:37:14;;;;;;;20.85;14.48;;;10.70;89.50;;;;;;5034616;28;20053;-80
2021/01/11 09:39:40;;;;;;;18.17;12.55;;;10.90;88.90;;;;;;5016436;28;20414;-78
2021/01/11 09:42:06;;;;;;;17.13;12.55;;;11.20;88.70;;;;;;5034870;28;20036;-78
2021/01/11 09:44:32;;;;;;;20.15;13.95;;;11.50;87.50;;;;;;5033332;28;20018;-76
2021/01/11 09:47:00;;;;;;;20.00;11.00;;;11.70;87.30;;;;;;5034586;28;20025;-78
2021/01/11 09:49:26;;;;;;;18.35;10.00;;;11.80;86.30;;;;;;5034373;28;20014;-81
2021/01/11 09:51:52;;;;;;;16.73;10.60;;;11.90;85.10;;;;;;5015839;28;20052;-80
2021/01/11 09:54:19;;;;;;;21.98;10.77;;;11.90;84.70;;;;;;5033850;28;20064;-79
2021/01/11 09:56:45;;;;;;;16.23;10.50;;;11.90;84.20;;;;;;5035409;28;20083;-79
2021/01/11 09:59:14;;;;;;;20.70;9.50;;;12.00;84.30;;;;;;5015916;28;20080;-81
2021/01/11 10:01:42;;;;;;;14.27;8.93;;;12.00;84.00;;;;;;5016456;28;20447;-80
2021/01/11 10:04:08;;;;;;;14.75;9.13;;;12.10;83.40;;;;;;5033776;28;20395;-81
2021/01/11 10:06:52;;;;;;;15.98;8.65;;;12.20;82.90;;;;;;5033660;28;20048;-81
2021/01/11 10:09:27;;;;;;;15.52;8.65;;;12.30;82.50;;;;;;5033590;28;20056;-80
2021/01/11 10:12:04;;;;;;;13.30;9.20;;;12.40;82.20;;;;;;5033810;28;20095;-80
2021/01/11 10:14:31;;;;;;;13.98;8.52;;;12.40;80.40;;;;;;5014714;28;20103;-80
2021/01/11 10:16:57;;;;;;;14.32;9.68;;;12.30;80.00;;;;;;5016446;28;20030;-81
2021/01/11 10:19:25;;;;;;;16.40;9.95;;;12.10;79.50;;;;;;5033243;28;20026;-81
2021/01/11 10:21:51;;;;;;;15.23;10.07;;;12.00;78.70;;;;;;5015547;28;20040;-80
2021/01/11 10:24:20;;;;;;;20.02;10.23;;;11.70;78.10;;;;;;5015838;28;20391;-79
2021/01/11 10:26:50;;;;;;;24.35;11.65;;;11.50;77.60;;;;;;5033532;28;20014;-81
2021/01/11 10:29:18;;;;;;;18.17;11.43;;;11.20;77.70;;;;;;5033760;28;20100;-80
2021/01/11 10:31:44;;;;;;;25.65;12.48;;;11.00;77.50;;;;;;5033583;28;20054;-81
2021/01/11 10:34:11;;;;;;;24.73;14.43;;;10.60;75.40;;;;;;5033707;28;20113;-84
2021/01/11 10:36:38;;;;;;;37.50;13.52;;;10.20;76.30;;;;;;5037158;28;20096;-81
2021/01/11 10:39:07;;;;;;;20.98;12.48;;;9.90;77.50;;;;;;5034011;28;20029;-80
2021/01/11 10:41:33;;;;;;;16.42;10.40;;;9.80;78.60;;;;;;5034291;28;20104;-81
2021/01/11 10:43:59;;;;;;;18.70;10.43;;;9.70;78.30;;;;;;5015993;28;20120;-81
2021/01/11 10:46:25;;;;;;;29.48;12.57;;;9.50;77.50;;;;;;5034822;28;20030;-81
2021/01/11 10:48:51;;;;;;;25.13;15.23;;;9.30;78.20;;;;;;5034090;28;20041;-80
2021/01/11 10:51:16;;;;;;;23.75;14.95;;;9.20;78.60;;;;;;5034479;28;20083;-81
2021/01/11 10:53:45;;;;;;;17.20;10.82;;;9.10;78.80;;;;;;5033263;28;20305;-80
2021/01/11 10:56:19;;;;;;;17.23;11.73;;;8.90;78.60;;;;;;5033355;28;20120;-83
2021/01/11 10:58:47;;;;;;;19.50;11.60;;;8.70;78.40;;;;;;5033103;28;20028;-81
2021/01/11 11:01:14;;;;;;;18.27;10.80;;;8.50;78.50;;;;;;5034059;28;20022;-81
2021/01/11 11:03:41;;;;;;;23.80;14.77;;;8.20;78.80;;;;;;5032815;28;20029;-82
2021/01/11 11:06:07;;;;;;;15.43;9.70;;;8.00;79.00;;;;;;5032616;28;20535;-80
2021/01/11 11:08:33;;;;;;;18.88;11.90;;;7.90;79.30;;;;;;5015091;28;20105;-80
2021/01/11 11:10:59;;;;;;;25.10;13.60;;;7.60;79.50;;;;;;5014936;28;20400;-81
2021/01/11 11:13:25;;;;;;;23.88;13.50;;;7.50;79.80;;;;;;5032623;28;20094;-80
2021/01/11 11:15:51;;;;;;;19.50;12.60;;;7.40;80.00;;;;;;5015281;28;20487;-79
2021/01/11 11:18:17;;;;;;;20.13;12.15;;;7.20;80.20;;;;;;5015243;28;20168;-80
2021/01/11 11:20:53;;;;;;;23.95;14.27;;;7.10;80.30;;;;;;5015269;28;20022;-79
2021/01/11 11:23:20;;;;;;;35.50;18.45;;;6.90;80.30;;;;;;5016256;28;20041;-81
2021/01/11 11:25:46;;;;;;;30.85;18.23;;;6.80;80.60;;;;;;5017708;28;20112;-80
2021/01/11 11:28:13;;;;;;;28.83;17.13;;;6.60;80.60;;;;;;5036936;28;20025;-79
2021/01/11 11:30:38;;;;;;;34.45;18.52;;;6.50;81.00;;;;;;5033464;28;20801;-80
2021/01/11 11:33:04;;;;;;;35.13;17.70;;;6.40;80.90;;;;;;5017655;28;20056;-79
2021/01/11 11:35:30;;;;;;;30.92;17.23;;;6.20;81.00;;;;;;5015438;28;20026;-79
2021/01/11 11:37:57;;;;;;;32.75;16.95;;;6.10;81.30;;;;;;5033790;28;20036;-79
2021/01/11 11:40:33;;;;;;;27.88;14.85;;;6.00;81.40;;;;;;5015915;28;20112;-80
2021/01/11 11:43:00;;;;;;;33.45;17.05;;;5.90;81.60;;;;;;5016700;28;20120;-81
2021/01/11 11:45:25;;;;;;;44.38;20.40;;;5.80;81.60;;;;;;5032734;28;20109;-81
2021/01/11 11:47:53;;;;;;;44.08;21.45;;;5.70;81.80;;;;;;5033209;28;20043;-80
2021/01/11 11:50:22;;;;;;;23.85;13.25;;;5.60;81.90;;;;;;5035860;28;20026;-78
2021/01/11 11:52:48;;;;;;;23.42;13.93;;;5.60;82.10;;;;;;5015317;28;20042;-81
2021/01/11 11:55:14;;;;;;;34.60;17.42;;;5.50;82.50;;;;;;5033085;28;20361;-80
2021/01/11 11:57:44;;;;;;;64.38;28.35;;;5.60;82.90;;;;;;5034045;28;20436;-80
2021/01/11 12:00:15;;;;;;;27.55;14.77;;;5.70;83.10;;;;;;5016664;28;20337;-80
2021/01/11 12:02:48;;;;;;;17.95;11.15;;;5.90;82.80;;;;;;5016682;28;20029;-81
2021/01/11 12:05:18;;;;;;;23.63;13.20;;;6.10;82.50;;;;;;5031964;28;20388;-80
2021/01/11 12:08:03;;;;;;;24.90;13.43;;;6.10;82.00;;;;;;5033044;28;20032;-81
2021/01/11 12:10:32;;;;;;;30.88;13.60;;;6.10;81.90;;;;;;5033676;28;20071;-79
2021/01/11 12:13:01;;;;;;;41.95;18.40;;;6.00;81.80;;;;;;5032032;28;20523;-81
2021/01/11 12:15:26;;;;;;;39.05;16.42;;;6.00;81.70;;;;;;5032535;28;20049;-78
2021/01/11 12:17:52;;;;;;;42.42;18.33;;;5.90;81.80;;;;;;5031849;28;20048;-79
2021/01/11 12:20:21;;;;;;;33.90;16.63;;;5.80;81.80;;;;;;5033727;28;20032;-81
2021/01/11 12:22:53;;;;;;;22.33;13.27;;;5.70;82.10;;;;;;5033124;28;20104;-78
2021/01/11 12:25:19;;;;;;;27.97;14.67;;;5.70;82.30;;;;;;4998595;28;20038;-78
2021/01/11 12:27:46;;;;;;;25.38;12.65;;;5.60;82.30;;;;;;5015797;28;20387;-79
2021/01/11 12:30:13;;;;;;;23.23;12.68;;;5.60;82.40;;;;;;5033549;28;20034;-80
2021/01/11 12:32:40;;;;;;;29.33;12.23;;;5.50;82.50;;;;;;5014553;28;20029;-79
2021/01/11 12:35:06;;;;;;;21.27;12.65;;;5.50;82.80;;;;;;5015012;28;20025;-79
2021/01/11 12:37:32;;;;;;;25.83;13.15;;;5.40;82.90;;;;;;5032251;28;20076;-79
2021/01/11 12:39:58;;;;;;;17.13;10.10;;;5.40;82.90;;;;;;5032672;28;20530;-80
2021/01/11 12:42:24;;;;;;;54.53;15.65;;;5.40;82.70;;;;;;5032631;28;20088;-81
2021/01/11 12:44:50;;;;;;;15.77;9.40;;;5.30;82.20;;;;;;5031714;28;20100;-79
2021/01/11 12:47:15;;;;;;;22.63;11.80;;;5.20;82.00;;;;;;5013902;28;20026;-81